createdAt,value
2022-10-28T00:01:37.343Z,7.83
2022-10-28T00:04:06.640Z,7.95
2022-10-28T00:06:37.291Z,8.08
2022-10-28T00:09:09.803Z,8.12
2022-10-28T00:11:41.114Z,8.14
2022-10-28T00:14:11.321Z,8.03
2022-10-28T00:16:41.156Z,8.05
2022-10-28T00:19:12.520Z,8.19
2022-10-28T00:21:43.796Z,8.27
2022-10-28T00:24:15.200Z,8.36
2022-10-28T00:26:45.167Z,8.39
2022-10-28T00:29:16.330Z,8.39
2022-10-28T00:31:45.997Z,8.43
2022-10-28T00:34:17.758Z,8.46
2022-10-28T00:36:48.015Z,8.53
2022-10-28T00:39:20.234Z,8.67
2022-10-28T00:41:53.752Z,8.71
2022-10-28T00:44:57.046Z,8.72
2022-10-28T00:47:45.587Z,8.58
2022-10-28T00:50:21.893Z,8.60
2022-10-28T00:52:53.906Z,8.57
2022-10-28T00:55:26.292Z,8.50
2022-10-28T00:57:56.929Z,8.51
2022-10-28T01:00:26.927Z,8.46
2022-10-28T01:02:58.208Z,8.40
2022-10-28T01:05:30.164Z,8.31
2022-10-28T01:08:03.459Z,8.26
2022-10-28T01:10:49.606Z,8.28
2022-10-28T01:13:30.754Z,8.26
2022-10-28T01:16:06.568Z,8.24
2022-10-28T01:18:44.037Z,8.13
2022-10-28T01:21:40.899Z,8.11
2022-10-28T01:24:31.843Z,8.01
2022-10-28T01:27:33.723Z,7.91
2022-10-28T01:30:11.335Z,7.80
2022-10-28T01:32:53.987Z,7.71
2022-10-28T01:38:19.279Z,7.93
2022-10-28T01:40:58.778Z,7.98
2022-10-28T01:43:32.347Z,8.04
2022-10-28T01:46:06.188Z,8.06
2022-10-28T01:48:41.649Z,8.11
2022-10-28T01:51:15.380Z,8.23
2022-10-28T01:53:48.805Z,8.23
2022-10-28T01:56:22.880Z,8.34
2022-10-28T01:58:53.927Z,8.39
2022-10-28T02:01:24.995Z,8.46
2022-10-28T02:03:56.851Z,8.50
2022-10-28T02:06:28.755Z,8.47
2022-10-28T02:09:15.836Z,8.69
2022-10-28T02:12:06.203Z,8.73
2022-10-28T02:14:50.043Z,8.73
2022-10-28T02:17:25.701Z,8.74
2022-10-28T02:20:02.852Z,8.82
2022-10-28T02:22:42.338Z,8.81
2022-10-28T02:25:17.243Z,8.68
2022-10-28T02:27:52.556Z,8.64
2022-10-28T02:30:25.328Z,8.61
2022-10-28T02:32:59.344Z,8.52
2022-10-28T02:35:33.783Z,8.41
2022-10-28T02:38:13.324Z,8.40
2022-10-28T02:40:47.732Z,8.41
2022-10-28T02:43:19.324Z,8.44
2022-10-28T02:45:53.105Z,8.45
2022-10-28T02:48:29.151Z,8.49
2022-10-28T02:51:08.715Z,8.52
2022-10-28T02:53:49.238Z,8.52
2022-10-28T02:56:21.208Z,8.48
2022-10-28T02:58:50.607Z,8.46
2022-10-28T03:01:20.216Z,8.44
2022-10-28T03:03:48.994Z,8.44
2022-10-28T03:06:19.090Z,8.43
2022-10-28T03:08:47.633Z,8.41
2022-10-28T03:11:16.739Z,8.41
2022-10-28T03:13:45.300Z,8.40
2022-10-28T03:16:14.120Z,8.42
2022-10-28T03:18:42.668Z,8.42
2022-10-28T03:21:11.101Z,8.34
2022-10-28T03:23:41.189Z,8.33
2022-10-28T03:26:12.651Z,8.39
2022-10-28T03:28:41.777Z,8.31
2022-10-28T03:31:10.888Z,8.18
2022-10-28T03:33:39.640Z,8.13
2022-10-28T03:36:08.913Z,7.98
2022-10-28T03:38:37.735Z,7.97
2022-10-28T03:41:08.121Z,7.93
2022-10-28T03:43:36.741Z,7.91
2022-10-28T03:46:05.351Z,7.83
2022-10-28T03:48:33.855Z,7.83
2022-10-28T03:51:02.527Z,7.97
2022-10-28T03:53:31.547Z,8.02
2022-10-28T03:56:01.850Z,7.94
2022-10-28T03:58:33.499Z,7.89
2022-10-28T04:01:04.865Z,7.91
2022-10-28T04:03:35.123Z,7.95
2022-10-28T04:06:03.781Z,7.90
2022-10-28T04:08:32.350Z,7.78
2022-10-28T04:11:01.025Z,7.73
2022-10-28T04:13:29.570Z,7.71
2022-10-28T04:16:00.068Z,7.60
2022-10-28T04:18:28.636Z,7.58
2022-10-28T04:20:57.577Z,7.68
2022-10-28T04:23:26.294Z,7.68
2022-10-28T04:25:55.659Z,7.63
2022-10-28T04:28:25.556Z,7.59
2022-10-28T04:30:54.545Z,7.45
2022-10-28T04:33:24.903Z,7.44
2022-10-28T04:35:53.621Z,7.56
2022-10-28T04:38:22.606Z,7.60
2022-10-28T04:40:51.785Z,7.61
2022-10-28T04:43:20.487Z,7.60
2022-10-28T04:45:49.549Z,7.63
2022-10-28T04:48:18.136Z,7.68
2022-10-28T04:50:48.416Z,7.72
2022-10-28T04:53:17.217Z,7.74
2022-10-28T04:55:45.801Z,7.75
2022-10-28T04:58:15.010Z,7.70
2022-10-28T05:00:43.688Z,7.71
2022-10-28T05:03:12.444Z,7.79
2022-10-28T05:05:41.087Z,7.91
2022-10-28T05:08:11.268Z,7.89
2022-10-28T05:10:40.103Z,7.84
2022-10-28T05:13:08.715Z,7.81
2022-10-28T05:15:37.534Z,7.72
2022-10-28T05:18:06.081Z,7.66
2022-10-28T05:20:34.850Z,7.64
2022-10-28T05:23:04.842Z,7.75
2022-10-28T05:25:35.523Z,7.68
2022-10-28T05:28:04.911Z,7.68
2022-10-28T05:30:33.902Z,7.76
2022-10-28T05:33:03.640Z,7.81
2022-10-28T05:35:32.858Z,7.85
2022-10-28T05:38:04.697Z,7.87
2022-10-28T05:40:35.612Z,7.85
2022-10-28T05:43:05.176Z,7.79
2022-10-28T05:45:34.101Z,7.69
2022-10-28T05:48:03.276Z,7.58
2022-10-28T05:50:32.450Z,7.42
2022-10-28T05:53:03.479Z,7.32
2022-10-28T05:55:32.704Z,7.28
2022-10-28T05:58:03.446Z,7.30
2022-10-28T06:00:32.558Z,7.34
2022-10-28T06:03:09.603Z,7.39
2022-10-28T06:05:39.633Z,7.46
2022-10-28T06:08:12.389Z,7.48
2022-10-28T06:10:43.580Z,7.50
2022-10-28T06:13:12.379Z,7.56
2022-10-28T06:15:41.524Z,7.65
2022-10-28T06:18:14.323Z,7.75
2022-10-28T06:20:53.614Z,7.88
2022-10-28T06:23:24.695Z,8.01
2022-10-28T06:28:33.139Z,8.27
2022-10-28T06:31:02.922Z,8.35
2022-10-28T06:33:31.910Z,8.45
2022-10-28T06:36:03.965Z,8.67
2022-10-28T06:38:32.401Z,8.82
2022-10-28T06:41:01.466Z,8.85
2022-10-28T06:43:32.832Z,8.97
2022-10-28T06:46:02.472Z,9.12
2022-10-28T06:48:33.501Z,9.24
2022-10-28T06:51:02.843Z,9.35
2022-10-28T06:53:32.499Z,9.54
2022-10-28T06:56:02.999Z,9.59
2022-10-28T06:58:31.905Z,9.62
2022-10-28T07:01:15.513Z,9.64
2022-10-28T07:03:49.581Z,9.69
2022-10-28T07:06:19.112Z,9.73
2022-10-28T07:08:49.325Z,9.73
2022-10-28T07:11:19.465Z,9.75
2022-10-28T07:13:49.010Z,9.75
2022-10-28T07:16:19.614Z,9.76
2022-10-28T07:18:48.435Z,9.74
2022-10-28T07:21:18.588Z,9.79
2022-10-28T07:23:50.458Z,9.88
2022-10-28T07:26:19.508Z,10.02
2022-10-28T07:28:48.609Z,10.10
2022-10-28T07:31:19.296Z,10.26
2022-10-28T07:33:53.693Z,10.49
2022-10-28T07:36:22.873Z,10.66
2022-10-28T07:38:53.697Z,10.86
2022-10-28T07:41:23.492Z,11.08
2022-10-28T07:43:55.483Z,11.30
2022-10-28T07:46:26.284Z,11.47
2022-10-28T07:48:54.883Z,11.62
2022-10-28T07:51:24.589Z,11.83
2022-10-28T07:53:53.800Z,11.97
2022-10-28T07:56:25.695Z,12.05
2022-10-28T07:58:54.805Z,12.14
2022-10-28T08:01:24.040Z,12.21
2022-10-28T08:03:56.856Z,12.29
2022-10-28T08:06:26.072Z,12.43
2022-10-28T08:08:56.712Z,12.66
2022-10-28T08:11:26.392Z,12.88
2022-10-28T08:13:56.576Z,13.11
2022-10-28T08:16:25.533Z,13.36
2022-10-28T08:18:56.870Z,13.54
2022-10-28T08:21:28.710Z,13.65
2022-10-28T08:24:00.836Z,13.74
2022-10-28T08:26:29.529Z,14.10
2022-10-28T08:28:58.462Z,14.38
2022-10-28T08:31:27.565Z,15.42
2022-10-28T08:33:57.807Z,15.71
2022-10-28T08:36:29.770Z,15.44
2022-10-28T08:38:59.730Z,15.20
2022-10-28T08:41:36.357Z,15.10
2022-10-28T08:44:39.803Z,15.03
2022-10-28T08:47:19.444Z,15.06
2022-10-28T08:49:54.391Z,15.29
2022-10-28T08:52:34.551Z,15.31
2022-10-28T08:55:07.801Z,15.35
2022-10-28T08:57:41.547Z,15.39
2022-10-28T09:00:23.030Z,15.86
2022-10-28T09:03:17.808Z,16.53
2022-10-28T09:05:51.467Z,16.41
2022-10-28T09:11:44.702Z,16.38
2022-10-28T09:14:30.414Z,16.80
2022-10-28T09:20:02.404Z,16.98
2022-10-28T09:25:39.185Z,17.32
2022-10-28T09:28:26.212Z,17.33
2022-10-28T09:34:13.333Z,17.32
2022-10-28T09:36:46.582Z,17.31
2022-10-28T09:39:25.326Z,17.20
2022-10-28T09:44:50.794Z,17.07
2022-10-28T09:47:24.499Z,17.15
2022-10-28T09:52:56.879Z,17.32
2022-10-28T09:55:27.722Z,17.27
2022-10-28T10:03:30.402Z,17.48
2022-10-28T10:06:04.271Z,17.52
2022-10-28T10:14:21.460Z,17.48
2022-10-28T10:16:56.194Z,17.51
2022-10-28T10:19:25.208Z,17.56
2022-10-28T10:24:47.609Z,17.67
2022-10-28T10:27:23.537Z,17.70
2022-10-28T10:29:56.564Z,17.79
2022-10-28T10:32:28.968Z,18.56
2022-10-28T10:35:02.320Z,19.30
2022-10-28T10:37:35.511Z,19.45
2022-10-28T10:40:19.697Z,19.20
2022-10-28T10:43:03.486Z,18.94
2022-10-28T10:45:39.988Z,18.77
2022-10-28T10:51:10.361Z,18.20
2022-10-28T10:53:43.583Z,18.08
2022-10-28T10:59:22.256Z,17.71
2022-10-28T11:01:56.118Z,17.73
2022-10-28T11:04:28.009Z,18.47
2022-10-28T11:06:58.605Z,19.56
2022-10-28T11:09:32.942Z,20.10
2022-10-28T11:15:00.735Z,23.34
2022-10-28T11:17:34.714Z,25.19
2022-10-28T11:20:25.593Z,26.69
2022-10-28T11:23:05.462Z,27.85
2022-10-28T11:25:38.580Z,28.32
2022-10-28T11:31:29.355Z,27.10
2022-10-28T11:34:15.640Z,24.86
2022-10-28T11:36:59.007Z,24.24
2022-10-28T11:39:37.057Z,24.46
2022-10-28T11:42:21.634Z,25.52
2022-10-28T11:48:05.793Z,28.47
2022-10-28T11:53:57.501Z,29.97
2022-10-28T11:56:35.703Z,30.47
2022-10-28T12:02:34.404Z,30.90
2022-10-28T12:05:10.741Z,30.92
2022-10-28T12:08:03.382Z,30.90
2022-10-28T12:10:47.191Z,30.77
2022-10-28T12:13:21.990Z,30.80
2022-10-28T12:15:56.677Z,30.87
2022-10-28T12:21:43.832Z,30.62
2022-10-28T12:27:15.281Z,26.90
2022-10-28T12:41:19.742Z,23.03
2022-10-28T12:52:41.257Z,20.96
2022-10-28T12:55:22.407Z,20.84
2022-10-28T13:00:50.571Z,20.62
2022-10-28T13:03:19.964Z,20.64
2022-10-28T13:09:18.964Z,20.56
2022-10-28T13:12:23.898Z,20.37
2022-10-28T13:15:18.010Z,20.25
2022-10-28T13:18:02.344Z,20.11
2022-10-28T13:20:48.741Z,19.99
2022-10-28T13:26:24.634Z,19.89
2022-10-28T13:37:33.636Z,19.76
2022-10-28T13:42:50.410Z,19.70
2022-10-28T13:45:55.401Z,19.67
2022-10-28T13:51:47.802Z,19.55
2022-10-28T13:54:28.331Z,19.44
2022-10-28T13:57:05.286Z,19.38
2022-10-28T13:59:49.137Z,19.35
2022-10-28T14:02:40.458Z,19.28
2022-10-28T14:08:00.841Z,19.16
2022-10-28T14:10:31.603Z,19.07
2022-10-28T14:13:03.476Z,18.91
2022-10-28T14:15:35.205Z,18.76
2022-10-28T14:21:16.574Z,18.55
2022-10-28T14:24:10.603Z,18.50
2022-10-28T14:27:32.262Z,18.41
2022-10-28T14:30:18.544Z,18.28
2022-10-28T14:33:04.757Z,18.18
2022-10-28T14:35:44.870Z,18.08
2022-10-28T14:38:42.398Z,18.01
2022-10-28T14:41:38.030Z,17.95
2022-10-28T14:44:20.378Z,17.89
2022-10-28T14:47:11.969Z,17.88
2022-10-28T14:49:43.757Z,17.86
2022-10-28T14:55:08.398Z,17.77
2022-10-28T14:57:37.729Z,17.71
2022-10-28T15:00:09.373Z,17.64
2022-10-28T15:02:39.651Z,17.58
2022-10-28T15:05:18.328Z,17.48
2022-10-28T15:07:50.409Z,17.37
2022-10-28T15:10:23.881Z,17.27
2022-10-28T15:12:55.423Z,17.22
2022-10-28T15:15:25.353Z,17.10
2022-10-28T15:17:55.883Z,17.02
2022-10-28T15:20:27.346Z,16.97
2022-10-28T15:23:14.843Z,16.97
2022-10-28T15:25:44.058Z,17.01
2022-10-28T15:33:46.568Z,16.87
2022-10-28T15:39:10.383Z,16.57
2022-10-28T15:41:44.033Z,16.47
2022-10-28T15:44:32.042Z,16.34
2022-10-28T15:47:01.946Z,16.24
2022-10-28T15:49:35.362Z,16.14
2022-10-28T15:52:22.501Z,15.97
2022-10-28T15:55:00.466Z,15.84
2022-10-28T15:57:32.730Z,15.73
2022-10-28T16:00:22.572Z,15.63
2022-10-28T16:02:56.761Z,15.55
2022-10-28T16:05:46.334Z,15.48
2022-10-28T16:08:24.843Z,15.42
2022-10-28T16:10:57.806Z,15.36
2022-10-28T16:13:30.865Z,15.34
2022-10-28T16:16:03.642Z,15.31
2022-10-28T16:18:36.528Z,15.28
2022-10-28T16:21:06.172Z,15.24
2022-10-28T16:26:28.751Z,15.12
2022-10-28T16:28:57.661Z,15.10
2022-10-28T16:34:17.159Z,15.00
2022-10-28T16:36:46.122Z,14.96
2022-10-28T16:39:15.114Z,14.93
2022-10-28T16:41:45.606Z,14.92
2022-10-28T16:44:22.374Z,14.90
2022-10-28T16:52:25.413Z,14.69
2022-10-28T16:54:55.631Z,14.55
2022-10-28T16:57:26.649Z,14.42
2022-10-28T16:59:55.930Z,14.33
2022-10-28T17:02:29.136Z,14.26
2022-10-28T17:04:59.345Z,14.19
2022-10-28T17:10:17.840Z,14.07
2022-10-28T17:15:33.885Z,13.98
2022-10-28T17:20:48.921Z,13.96
2022-10-28T17:23:18.357Z,13.92
2022-10-28T17:25:57.480Z,13.92
2022-10-28T17:28:27.727Z,13.93
2022-10-28T17:36:41.788Z,13.86
2022-10-28T17:39:16.456Z,13.84
2022-10-28T17:41:46.869Z,13.88
2022-10-28T17:44:17.616Z,13.88
2022-10-28T17:52:20.578Z,13.88
2022-10-28T17:54:49.492Z,13.90
2022-10-28T17:57:18.188Z,13.93
2022-10-28T17:59:50.208Z,13.93
2022-10-28T18:02:18.920Z,13.93
2022-10-28T18:07:34.089Z,13.97
2022-10-28T18:10:02.898Z,14.02
2022-10-28T18:12:32.504Z,14.04
2022-10-28T18:17:50.828Z,14.08
2022-10-28T18:20:19.658Z,14.11
2022-10-28T18:22:48.510Z,14.12
2022-10-28T18:25:17.663Z,14.09
2022-10-28T18:27:46.605Z,14.12
2022-10-28T18:30:19.670Z,14.15
2022-10-28T18:35:36.092Z,14.19
2022-10-28T18:38:05.036Z,14.15
2022-10-28T18:40:33.903Z,14.15
2022-10-28T18:43:03.136Z,14.18
2022-10-28T18:45:36.067Z,14.19
2022-10-28T18:48:06.586Z,14.22
2022-10-28T18:50:35.406Z,14.24
2022-10-28T18:55:52.387Z,14.28
2022-10-28T19:01:11.688Z,14.30
2022-10-28T19:03:41.359Z,14.30
2022-10-28T19:06:12.320Z,14.27
2022-10-28T19:08:42.440Z,14.19
2022-10-28T19:11:13.842Z,14.11
2022-10-28T19:13:44.332Z,14.04
2022-10-28T19:19:02.695Z,13.95
2022-10-28T19:21:31.590Z,13.89
2022-10-28T19:26:47.648Z,13.76
2022-10-28T19:29:16.721Z,13.67
2022-10-28T19:31:47.510Z,13.60
2022-10-28T19:34:21.048Z,13.55
2022-10-28T19:36:49.956Z,13.50
2022-10-28T19:39:18.619Z,13.40
2022-10-28T19:41:50.903Z,13.37
2022-10-28T19:47:08.308Z,13.22
2022-10-28T19:49:43.447Z,13.15
2022-10-28T19:54:59.472Z,13.08
2022-10-28T19:57:28.215Z,13.03
2022-10-28T19:59:57.454Z,12.94
2022-10-28T20:02:28.646Z,12.93
2022-10-28T20:04:57.516Z,12.97
2022-10-28T20:07:26.479Z,12.97
2022-10-28T20:09:55.962Z,13.01
2022-10-28T20:12:24.944Z,13.00
2022-10-28T20:14:53.732Z,12.93
2022-10-28T20:17:22.727Z,12.90
2022-10-28T20:19:52.913Z,12.89
2022-10-28T20:22:21.879Z,12.84
2022-10-28T20:24:50.819Z,12.80
2022-10-28T20:27:19.588Z,12.73
2022-10-28T20:29:48.531Z,12.69
2022-10-28T20:32:17.491Z,12.62
2022-10-28T20:34:46.222Z,12.59
2022-10-28T20:40:06.371Z,12.57
2022-10-28T20:42:36.510Z,12.57
2022-10-28T20:45:05.716Z,12.56
2022-10-28T20:47:34.497Z,12.56
2022-10-28T20:55:38.276Z,12.57
2022-10-28T20:58:07.415Z,12.59
2022-10-28T21:00:36.301Z,12.61
2022-10-28T21:03:05.325Z,12.61
2022-10-28T21:08:22.521Z,12.52
2022-10-28T21:10:51.346Z,12.54
2022-10-28T21:13:20.297Z,12.57
2022-10-28T21:15:54.573Z,12.60
2022-10-28T21:21:13.346Z,12.64
2022-10-28T21:23:43.508Z,12.59
2022-10-28T21:26:14.867Z,12.51
2022-10-28T21:28:43.693Z,12.53
2022-10-28T21:34:04.475Z,12.64
2022-10-28T21:36:36.484Z,12.68
2022-10-28T21:39:06.761Z,12.68
2022-10-28T21:41:35.501Z,12.65
2022-10-28T21:44:06.899Z,12.61
2022-10-28T21:49:21.891Z,12.61
2022-10-28T21:51:50.812Z,12.61
2022-10-28T21:54:21.126Z,12.60
2022-10-28T21:56:51.003Z,12.56
2022-10-28T21:59:19.672Z,12.55
2022-10-28T22:04:34.807Z,12.54
2022-10-28T22:07:03.717Z,12.59
2022-10-28T22:09:37.662Z,12.71
2022-10-28T22:12:09.588Z,12.80
2022-10-28T22:14:39.112Z,12.91
2022-10-28T22:17:08.116Z,12.95
2022-10-28T22:19:36.662Z,12.95
2022-10-28T22:24:54.153Z,12.97
2022-10-28T22:27:23.417Z,12.95
2022-10-28T22:29:52.301Z,12.96
2022-10-28T22:32:20.849Z,12.95
2022-10-28T22:34:50.243Z,12.88
2022-10-28T22:37:19.128Z,12.80
2022-10-28T22:39:47.678Z,12.73
2022-10-28T22:45:05.596Z,12.57
2022-10-28T22:47:37.315Z,12.50
2022-10-28T22:50:06.918Z,12.46
2022-10-28T22:55:21.392Z,12.35
2022-10-28T22:57:54.452Z,12.32
2022-10-28T23:03:09.868Z,12.23
2022-10-28T23:05:38.998Z,12.22
2022-10-28T23:10:54.329Z,12.21
2022-10-28T23:16:12.408Z,12.15
2022-10-28T23:24:14.285Z,12.04
2022-10-28T23:26:43.887Z,12.02
2022-10-28T23:29:14.301Z,11.97
2022-10-28T23:31:43.076Z,11.95
2022-10-28T23:34:12.671Z,11.95
2022-10-28T23:39:27.859Z,11.92
2022-10-28T23:41:56.734Z,11.91
2022-10-28T23:47:16.440Z,11.99
2022-10-28T23:49:45.461Z,12.02
2022-10-28T23:52:14.397Z,12.02
2022-10-28T23:57:31.622Z,12.06
